sensor_id;sensor_type;location;lat;lon;timestamp;P1;durP1;ratioP1;P2;durP2;ratioP2
34236;SDS011;20501;45.956;13.632;2024-03-08T00:01:05;1.85;;;1.30;;
34236;SDS011;20501;45.956;13.632;2024-03-08T00:03:31;1.08;;;0.95;;
34236;SDS011;20501;45.956;13.632;2024-03-08T00:05:57;1.25;;;0.90;;
34236;SDS011;20501;45.956;13.632;2024-03-08T00:08:23;1.10;;;0.90;;
34236;SDS011;20501;45.956;13.632;2024-03-08T00:10:48;1.00;;;0.80;;
34236;SDS011;20501;45.956;13.632;2024-03-08T00:13:14;1.40;;;1.05;;
34236;SDS011;20501;45.956;13.632;2024-03-08T00:15:39;0.70;;;0.70;;
34236;SDS011;20501;45.956;13.632;2024-03-08T00:18:06;0.75;;;0.70;;
34236;SDS011;20501;45.956;13.632;2024-03-08T00:20:31;0.82;;;0.73;;
34236;SDS011;20501;45.956;13.632;2024-03-08T00:22:57;1.08;;;0.73;;
34236;SDS011;20501;45.956;13.632;2024-03-08T00:25:23;1.23;;;0.63;;
34236;SDS011;20501;45.956;13.632;2024-03-08T00:27:48;1.15;;;0.80;;
34236;SDS011;20501;45.956;13.632;2024-03-08T00:30:14;0.70;;;0.70;;
34236;SDS011;20501;45.956;13.632;2024-03-08T00:32:40;0.75;;;0.60;;
34236;SDS011;20501;45.956;13.632;2024-03-08T00:35:06;4.03;;;0.80;;
34236;SDS011;20501;45.956;13.632;2024-03-08T00:37:34;1.10;;;0.90;;
34236;SDS011;20501;45.956;13.632;2024-03-08T00:40:00;1.23;;;0.75;;
34236;SDS011;20501;45.956;13.632;2024-03-08T00:42:25;0.88;;;0.85;;
34236;SDS011;20501;45.956;13.632;2024-03-08T00:44:51;0.60;;;0.50;;
34236;SDS011;20501;45.956;13.632;2024-03-08T00:47:16;1.05;;;0.90;;
34236;SDS011;20501;45.956;13.632;2024-03-08T00:49:42;0.93;;;0.82;;
34236;SDS011;20501;45.956;13.632;2024-03-08T00:52:08;1.58;;;0.88;;
34236;SDS011;20501;45.956;13.632;2024-03-08T00:54:36;0.90;;;0.80;;
34236;SDS011;20501;45.956;13.632;2024-03-08T00:57:02;1.40;;;1.02;;
34236;SDS011;20501;45.956;13.632;2024-03-08T00:59:30;1.37;;;0.90;;
34236;SDS011;20501;45.956;13.632;2024-03-08T01:01:59;1.33;;;1.10;;
34236;SDS011;20501;45.956;13.632;2024-03-08T01:04:25;1.13;;;0.90;;
34236;SDS011;20501;45.956;13.632;2024-03-08T01:06:53;1.60;;;1.05;;
34236;SDS011;20501;45.956;13.632;2024-03-08T01:09:21;2.22;;;0.90;;
34236;SDS011;20501;45.956;13.632;2024-03-08T01:11:47;1.15;;;1.05;;
34236;SDS011;20501;45.956;13.632;2024-03-08T01:14:12;0.88;;;0.88;;
34236;SDS011;20501;45.956;13.632;2024-03-08T01:16:38;0.93;;;0.90;;
34236;SDS011;20501;45.956;13.632;2024-03-08T01:19:03;0.90;;;0.90;;
34236;SDS011;20501;45.956;13.632;2024-03-08T01:21:28;1.15;;;1.05;;
34236;SDS011;20501;45.956;13.632;2024-03-08T01:23:54;1.23;;;0.80;;
34236;SDS011;20501;45.956;13.632;2024-03-08T01:26:19;0.98;;;0.88;;
34236;SDS011;20501;45.956;13.632;2024-03-08T01:28:45;1.88;;;1.05;;
34236;SDS011;20501;45.956;13.632;2024-03-08T01:31:10;1.58;;;1.20;;
34236;SDS011;20501;45.956;13.632;2024-03-08T01:33:35;1.70;;;1.20;;
34236;SDS011;20501;45.956;13.632;2024-03-08T01:36:01;1.15;;;1.05;;
34236;SDS011;20501;45.956;13.632;2024-03-08T01:38:27;1.03;;;0.80;;
34236;SDS011;20501;45.956;13.632;2024-03-08T01:40:53;1.35;;;1.10;;
34236;SDS011;20501;45.956;13.632;2024-03-08T01:43:22;1.33;;;1.02;;
34236;SDS011;20501;45.956;13.632;2024-03-08T01:45:51;0.98;;;0.88;;
34236;SDS011;20501;45.956;13.632;2024-03-08T01:48:18;1.73;;;1.20;;
34236;SDS011;20501;45.956;13.632;2024-03-08T01:50:44;1.63;;;1.20;;
34236;SDS011;20501;45.956;13.632;2024-03-08T01:53:10;1.33;;;1.10;;
34236;SDS011;20501;45.956;13.632;2024-03-08T01:55:40;1.70;;;1.42;;
34236;SDS011;20501;45.956;13.632;2024-03-08T01:58:07;2.83;;;1.70;;
34236;SDS011;20501;45.956;13.632;2024-03-08T02:00:35;2.25;;;1.48;;
34236;SDS011;20501;45.956;13.632;2024-03-08T02:03:05;2.58;;;1.50;;
34236;SDS011;20501;45.956;13.632;2024-03-08T02:05:30;2.67;;;1.70;;
34236;SDS011;20501;45.956;13.632;2024-03-08T02:07:56;2.63;;;1.77;;
34236;SDS011;20501;45.956;13.632;2024-03-08T02:10:22;2.60;;;2.17;;
34236;SDS011;20501;45.956;13.632;2024-03-08T02:12:48;4.40;;;2.20;;
34236;SDS011;20501;45.956;13.632;2024-03-08T02:15:13;3.25;;;1.90;;
34236;SDS011;20501;45.956;13.632;2024-03-08T02:17:40;3.73;;;2.73;;
34236;SDS011;20501;45.956;13.632;2024-03-08T02:20:06;5.03;;;2.50;;
34236;SDS011;20501;45.956;13.632;2024-03-08T02:22:34;4.15;;;2.75;;
34236;SDS011;20501;45.956;13.632;2024-03-08T02:24:59;3.70;;;2.83;;
34236;SDS011;20501;45.956;13.632;2024-03-08T02:27:28;4.78;;;3.22;;
34236;SDS011;20501;45.956;13.632;2024-03-08T02:29:57;3.53;;;2.50;;
34236;SDS011;20501;45.956;13.632;2024-03-08T02:32:23;4.22;;;3.05;;
34236;SDS011;20501;45.956;13.632;2024-03-08T02:34:49;7.18;;;3.45;;
34236;SDS011;20501;45.956;13.632;2024-03-08T02:37:15;4.32;;;3.00;;
34236;SDS011;20501;45.956;13.632;2024-03-08T02:39:41;4.27;;;3.20;;
34236;SDS011;20501;45.956;13.632;2024-03-08T02:42:07;6.32;;;3.70;;
34236;SDS011;20501;45.956;13.632;2024-03-08T02:44:32;4.60;;;3.25;;
34236;SDS011;20501;45.956;13.632;2024-03-08T02:46:58;4.38;;;3.28;;
34236;SDS011;20501;45.956;13.632;2024-03-08T02:49:25;4.97;;;3.50;;
34236;SDS011;20501;45.956;13.632;2024-03-08T02:51:51;5.30;;;3.67;;
34236;SDS011;20501;45.956;13.632;2024-03-08T02:54:17;7.18;;;3.60;;
34236;SDS011;20501;45.956;13.632;2024-03-08T02:56:44;5.15;;;3.72;;
34236;SDS011;20501;45.956;13.632;2024-03-08T02:59:11;5.57;;;3.55;;
34236;SDS011;20501;45.956;13.632;2024-03-08T03:01:37;7.47;;;3.47;;
34236;SDS011;20501;45.956;13.632;2024-03-08T03:04:04;5.65;;;4.05;;
34236;SDS011;20501;45.956;13.632;2024-03-08T03:06:29;5.35;;;3.53;;
34236;SDS011;20501;45.956;13.632;2024-03-08T03:08:56;5.43;;;3.30;;
34236;SDS011;20501;45.956;13.632;2024-03-08T03:11:22;6.07;;;3.78;;
34236;SDS011;20501;45.956;13.632;2024-03-08T03:13:48;6.45;;;4.43;;
34236;SDS011;20501;45.956;13.632;2024-03-08T03:16:16;5.32;;;3.90;;
34236;SDS011;20501;45.956;13.632;2024-03-08T03:18:44;7.82;;;3.83;;
34236;SDS011;20501;45.956;13.632;2024-03-08T03:21:09;5.53;;;4.05;;
34236;SDS011;20501;45.956;13.632;2024-03-08T03:23:34;5.45;;;4.28;;
34236;SDS011;20501;45.956;13.632;2024-03-08T03:26:00;7.18;;;4.80;;
34236;SDS011;20501;45.956;13.632;2024-03-08T03:28:27;7.13;;;4.60;;
34236;SDS011;20501;45.956;13.632;2024-03-08T03:30:53;7.40;;;4.45;;
34236;SDS011;20501;45.956;13.632;2024-03-08T03:33:18;10.30;;;4.35;;
34236;SDS011;20501;45.956;13.632;2024-03-08T03:35:44;8.00;;;4.82;;
34236;SDS011;20501;45.956;13.632;2024-03-08T03:38:10;6.00;;;4.25;;
34236;SDS011;20501;45.956;13.632;2024-03-08T03:40:36;7.13;;;4.57;;
34236;SDS011;20501;45.956;13.632;2024-03-08T03:43:03;7.80;;;4.65;;
34236;SDS011;20501;45.956;13.632;2024-03-08T03:45:28;7.85;;;4.53;;
34236;SDS011;20501;45.956;13.632;2024-03-08T03:47:54;6.97;;;4.60;;
34236;SDS011;20501;45.956;13.632;2024-03-08T03:50:20;7.15;;;4.60;;
34236;SDS011;20501;45.956;13.632;2024-03-08T03:52:47;6.85;;;4.82;;
34236;SDS011;20501;45.956;13.632;2024-03-08T03:55:13;9.00;;;4.85;;
34236;SDS011;20501;45.956;13.632;2024-03-08T03:57:39;6.38;;;4.45;;
34236;SDS011;20501;45.956;13.632;2024-03-08T04:00:05;6.63;;;4.50;;
34236;SDS011;20501;45.956;13.632;2024-03-08T04:02:31;7.50;;;4.63;;
34236;SDS011;20501;45.956;13.632;2024-03-08T04:04:56;10.38;;;5.00;;
34236;SDS011;20501;45.956;13.632;2024-03-08T04:07:22;7.65;;;4.78;;
34236;SDS011;20501;45.956;13.632;2024-03-08T04:09:47;7.57;;;4.28;;
34236;SDS011;20501;45.956;13.632;2024-03-08T04:12:13;9.52;;;5.57;;
34236;SDS011;20501;45.956;13.632;2024-03-08T04:14:41;7.32;;;4.70;;
34236;SDS011;20501;45.956;13.632;2024-03-08T04:17:07;7.18;;;4.70;;
34236;SDS011;20501;45.956;13.632;2024-03-08T04:22:00;9.18;;;5.53;;
34236;SDS011;20501;45.956;13.632;2024-03-08T04:24:27;9.65;;;5.72;;
34236;SDS011;20501;45.956;13.632;2024-03-08T04:26:52;8.23;;;5.28;;
34236;SDS011;20501;45.956;13.632;2024-03-08T04:29:18;13.68;;;5.72;;
34236;SDS011;20501;45.956;13.632;2024-03-08T04:31:43;12.88;;;7.05;;
34236;SDS011;20501;45.956;13.632;2024-03-08T04:34:09;16.25;;;8.25;;
34236;SDS011;20501;45.956;13.632;2024-03-08T04:36:35;13.70;;;6.63;;
34236;SDS011;20501;45.956;13.632;2024-03-08T04:39:01;13.68;;;7.82;;
34236;SDS011;20501;45.956;13.632;2024-03-08T04:41:26;10.80;;;6.00;;
34236;SDS011;20501;45.956;13.632;2024-03-08T04:43:51;11.95;;;6.50;;
34236;SDS011;20501;45.956;13.632;2024-03-08T04:46:17;12.25;;;6.53;;
34236;SDS011;20501;45.956;13.632;2024-03-08T04:48:43;10.27;;;6.47;;
34236;SDS011;20501;45.956;13.632;2024-03-08T04:51:08;11.73;;;6.50;;
34236;SDS011;20501;45.956;13.632;2024-03-08T04:53:35;11.88;;;6.60;;
34236;SDS011;20501;45.956;13.632;2024-03-08T04:56:00;8.80;;;5.80;;
34236;SDS011;20501;45.956;13.632;2024-03-08T04:58:31;9.57;;;5.63;;
34236;SDS011;20501;45.956;13.632;2024-03-08T05:01:05;8.93;;;5.40;;
34236;SDS011;20501;45.956;13.632;2024-03-08T05:03:30;10.35;;;6.55;;
34236;SDS011;20501;45.956;13.632;2024-03-08T05:05:56;9.60;;;5.93;;
34236;SDS011;20501;45.956;13.632;2024-03-08T05:08:21;10.38;;;6.30;;
34236;SDS011;20501;45.956;13.632;2024-03-08T05:10:47;11.88;;;7.72;;
34236;SDS011;20501;45.956;13.632;2024-03-08T05:13:12;10.70;;;7.07;;
34236;SDS011;20501;45.956;13.632;2024-03-08T05:15:41;9.00;;;6.28;;
34236;SDS011;20501;45.956;13.632;2024-03-08T05:18:07;10.85;;;7.10;;
34236;SDS011;20501;45.956;13.632;2024-03-08T05:20:33;11.20;;;7.03;;
34236;SDS011;20501;45.956;13.632;2024-03-08T05:22:58;9.32;;;6.18;;
34236;SDS011;20501;45.956;13.632;2024-03-08T05:25:25;10.60;;;6.72;;
34236;SDS011;20501;45.956;13.632;2024-03-08T05:27:51;13.50;;;6.37;;
34236;SDS011;20501;45.956;13.632;2024-03-08T05:30:17;9.70;;;6.15;;
34236;SDS011;20501;45.956;13.632;2024-03-08T05:32:42;9.27;;;6.32;;
34236;SDS011;20501;45.956;13.632;2024-03-08T05:35:11;11.70;;;6.53;;
34236;SDS011;20501;45.956;13.632;2024-03-08T05:37:37;10.00;;;6.55;;
34236;SDS011;20501;45.956;13.632;2024-03-08T05:40:05;14.30;;;8.25;;
34236;SDS011;20501;45.956;13.632;2024-03-08T05:42:34;13.50;;;7.95;;
34236;SDS011;20501;45.956;13.632;2024-03-08T05:45:01;13.02;;;7.47;;
34236;SDS011;20501;45.956;13.632;2024-03-08T05:47:27;11.77;;;7.72;;
34236;SDS011;20501;45.956;13.632;2024-03-08T05:49:53;13.77;;;8.40;;
34236;SDS011;20501;45.956;13.632;2024-03-08T05:52:18;11.90;;;7.57;;
34236;SDS011;20501;45.956;13.632;2024-03-08T05:54:44;10.93;;;7.18;;
34236;SDS011;20501;45.956;13.632;2024-03-08T05:57:10;12.27;;;7.70;;
34236;SDS011;20501;45.956;13.632;2024-03-08T05:59:36;24.35;;;11.55;;
34236;SDS011;20501;45.956;13.632;2024-03-08T06:02:01;24.30;;;11.95;;
34236;SDS011;20501;45.956;13.632;2024-03-08T06:04:28;34.88;;;15.73;;
34236;SDS011;20501;45.956;13.632;2024-03-08T06:06:54;26.37;;;12.47;;
34236;SDS011;20501;45.956;13.632;2024-03-08T06:09:22;23.88;;;12.68;;
34236;SDS011;20501;45.956;13.632;2024-03-08T06:11:48;12.60;;;8.35;;
34236;SDS011;20501;45.956;13.632;2024-03-08T06:14:14;13.40;;;8.50;;
34236;SDS011;20501;45.956;13.632;2024-03-08T06:16:43;15.30;;;9.18;;
34236;SDS011;20501;45.956;13.632;2024-03-08T06:19:09;15.65;;;9.77;;
34236;SDS011;20501;45.956;13.632;2024-03-08T06:21:35;20.70;;;12.02;;
34236;SDS011;20501;45.956;13.632;2024-03-08T06:24:01;17.25;;;11.25;;
34236;SDS011;20501;45.956;13.632;2024-03-08T06:26:26;28.63;;;18.35;;
34236;SDS011;20501;45.956;13.632;2024-03-08T06:28:55;23.80;;;14.68;;
34236;SDS011;20501;45.956;13.632;2024-03-08T06:31:20;18.05;;;11.15;;
34236;SDS011;20501;45.956;13.632;2024-03-08T06:33:46;13.05;;;8.82;;
34236;SDS011;20501;45.956;13.632;2024-03-08T06:36:15;17.30;;;9.05;;
34236;SDS011;20501;45.956;13.632;2024-03-08T06:38:43;14.55;;;8.80;;
34236;SDS011;20501;45.956;13.632;2024-03-08T06:41:11;16.10;;;9.30;;
34236;SDS011;20501;45.956;13.632;2024-03-08T06:43:43;15.13;;;8.88;;
34236;SDS011;20501;45.956;13.632;2024-03-08T06:46:09;16.42;;;9.65;;
34236;SDS011;20501;45.956;13.632;2024-03-08T06:48:35;18.38;;;9.95;;
34236;SDS011;20501;45.956;13.632;2024-03-08T06:51:02;16.08;;;9.00;;
34236;SDS011;20501;45.956;13.632;2024-03-08T06:53:28;15.85;;;9.50;;
34236;SDS011;20501;45.956;13.632;2024-03-08T06:55:53;15.35;;;9.52;;
34236;SDS011;20501;45.956;13.632;2024-03-08T06:58:19;19.40;;;11.00;;
34236;SDS011;20501;45.956;13.632;2024-03-08T07:00:45;20.35;;;11.70;;
34236;SDS011;20501;45.956;13.632;2024-03-08T07:03:10;22.48;;;15.40;;
34236;SDS011;20501;45.956;13.632;2024-03-08T07:05:37;14.00;;;8.50;;
34236;SDS011;20501;45.956;13.632;2024-03-08T07:08:03;14.77;;;8.95;;
34236;SDS011;20501;45.956;13.632;2024-03-08T07:10:29;18.10;;;10.50;;
34236;SDS011;20501;45.956;13.632;2024-03-08T07:12:54;15.98;;;9.85;;
34236;SDS011;20501;45.956;13.632;2024-03-08T07:15:20;19.35;;;9.40;;
34236;SDS011;20501;45.956;13.632;2024-03-08T07:17:46;14.13;;;8.90;;
34236;SDS011;20501;45.956;13.632;2024-03-08T07:20:13;15.97;;;8.47;;
34236;SDS011;20501;45.956;13.632;2024-03-08T07:22:40;16.17;;;9.70;;
34236;SDS011;20501;45.956;13.632;2024-03-08T07:25:06;18.77;;;9.43;;
34236;SDS011;20501;45.956;13.632;2024-03-08T07:27:47;18.58;;;9.88;;
34236;SDS011;20501;45.956;13.632;2024-03-08T07:30:13;15.70;;;9.55;;
34236;SDS011;20501;45.956;13.632;2024-03-08T07:32:59;15.13;;;8.70;;
34236;SDS011;20501;45.956;13.632;2024-03-08T07:35:24;14.63;;;8.50;;
34236;SDS011;20501;45.956;13.632;2024-03-08T07:37:51;14.90;;;9.32;;
34236;SDS011;20501;45.956;13.632;2024-03-08T07:40:18;16.45;;;8.15;;
34236;SDS011;20501;45.956;13.632;2024-03-08T07:42:43;13.65;;;8.18;;
34236;SDS011;20501;45.956;13.632;2024-03-08T07:45:09;16.65;;;8.85;;
34236;SDS011;20501;45.956;13.632;2024-03-08T07:47:34;20.92;;;8.85;;
34236;SDS011;20501;45.956;13.632;2024-03-08T07:50:01;14.13;;;8.65;;
34236;SDS011;20501;45.956;13.632;2024-03-08T07:52:27;15.45;;;8.05;;
34236;SDS011;20501;45.956;13.632;2024-03-08T07:54:52;16.90;;;8.70;;
34236;SDS011;20501;45.956;13.632;2024-03-08T07:57:18;24.60;;;8.17;;
34236;SDS011;20501;45.956;13.632;2024-03-08T07:59:44;15.50;;;8.57;;
34236;SDS011;20501;45.956;13.632;2024-03-08T08:02:09;12.48;;;7.95;;
34236;SDS011;20501;45.956;13.632;2024-03-08T08:04:35;13.02;;;7.53;;
34236;SDS011;20501;45.956;13.632;2024-03-08T08:07:01;13.18;;;8.23;;
34236;SDS011;20501;45.956;13.632;2024-03-08T08:09:26;17.80;;;9.20;;
34236;SDS011;20501;45.956;13.632;2024-03-08T08:11:59;14.32;;;8.95;;
34236;SDS011;20501;45.956;13.632;2024-03-08T08:14:27;12.77;;;8.57;;
34236;SDS011;20501;45.956;13.632;2024-03-08T08:16:52;16.55;;;9.13;;
34236;SDS011;20501;45.956;13.632;2024-03-08T08:19:18;13.98;;;8.48;;
34236;SDS011;20501;45.956;13.632;2024-03-08T08:21:44;13.63;;;7.97;;
34236;SDS011;20501;45.956;13.632;2024-03-08T08:24:09;14.73;;;7.25;;
34236;SDS011;20501;45.956;13.632;2024-03-08T08:26:35;20.48;;;9.55;;
34236;SDS011;20501;45.956;13.632;2024-03-08T08:29:01;16.60;;;9.43;;
34236;SDS011;20501;45.956;13.632;2024-03-08T08:31:27;23.75;;;13.23;;
34236;SDS011;20501;45.956;13.632;2024-03-08T08:33:52;15.27;;;8.82;;
34236;SDS011;20501;45.956;13.632;2024-03-08T08:36:26;15.43;;;8.32;;
34236;SDS011;20501;45.956;13.632;2024-03-08T08:38:51;13.15;;;7.53;;
34236;SDS011;20501;45.956;13.632;2024-03-08T08:41:20;12.18;;;7.53;;
34236;SDS011;20501;45.956;13.632;2024-03-08T08:43:46;15.52;;;8.25;;
34236;SDS011;20501;45.956;13.632;2024-03-08T08:46:12;17.35;;;8.02;;
34236;SDS011;20501;45.956;13.632;2024-03-08T08:48:40;12.48;;;6.75;;
34236;SDS011;20501;45.956;13.632;2024-03-08T08:51:10;12.63;;;7.53;;
34236;SDS011;20501;45.956;13.632;2024-03-08T08:53:40;18.50;;;8.82;;
34236;SDS011;20501;45.956;13.632;2024-03-08T08:56:08;11.32;;;7.60;;
34236;SDS011;20501;45.956;13.632;2024-03-08T08:58:38;15.05;;;8.20;;
34236;SDS011;20501;45.956;13.632;2024-03-08T09:01:05;20.15;;;10.65;;
34236;SDS011;20501;45.956;13.632;2024-03-08T09:03:30;10.93;;;7.15;;
34236;SDS011;20501;45.956;13.632;2024-03-08T09:05:55;14.80;;;7.28;;
34236;SDS011;20501;45.956;13.632;2024-03-08T09:08:21;11.57;;;7.13;;
34236;SDS011;20501;45.956;13.632;2024-03-08T09:10:46;12.77;;;7.72;;
34236;SDS011;20501;45.956;13.632;2024-03-08T09:13:13;12.48;;;7.40;;
34236;SDS011;20501;45.956;13.632;2024-03-08T09:15:39;12.38;;;7.32;;
34236;SDS011;20501;45.956;13.632;2024-03-08T09:18:05;13.53;;;8.03;;
34236;SDS011;20501;45.956;13.632;2024-03-08T09:20:31;23.43;;;14.73;;
34236;SDS011;20501;45.956;13.632;2024-03-08T09:22:57;13.52;;;8.43;;
34236;SDS011;20501;45.956;13.632;2024-03-08T09:25:24;11.43;;;6.55;;
34236;SDS011;20501;45.956;13.632;2024-03-08T09:27:50;12.10;;;7.60;;
34236;SDS011;20501;45.956;13.632;2024-03-08T09:30:15;14.20;;;7.18;;
34236;SDS011;20501;45.956;13.632;2024-03-08T09:32:41;18.30;;;6.80;;
34236;SDS011;20501;45.956;13.632;2024-03-08T09:35:08;11.43;;;6.30;;
34236;SDS011;20501;45.956;13.632;2024-03-08T09:37:34;12.45;;;6.78;;
34236;SDS011;20501;45.956;13.632;2024-03-08T09:40:00;11.02;;;6.78;;
34236;SDS011;20501;45.956;13.632;2024-03-08T09:42:29;9.90;;;6.32;;
34236;SDS011;20501;45.956;13.632;2024-03-08T09:44:55;12.65;;;7.57;;
34236;SDS011;20501;45.956;13.632;2024-03-08T09:47:20;11.45;;;7.38;;
34236;SDS011;20501;45.956;13.632;2024-03-08T09:49:49;11.32;;;7.15;;
34236;SDS011;20501;45.956;13.632;2024-03-08T09:52:15;11.63;;;7.15;;
34236;SDS011;20501;45.956;13.632;2024-03-08T09:54:41;15.47;;;8.27;;
34236;SDS011;20501;45.956;13.632;2024-03-08T09:57:09;18.60;;;9.80;;
34236;SDS011;20501;45.956;13.632;2024-03-08T09:59:35;27.38;;;13.18;;
34236;SDS011;20501;45.956;13.632;2024-03-08T10:02:01;14.85;;;8.65;;
34236;SDS011;20501;45.956;13.632;2024-03-08T10:04:28;14.38;;;8.35;;
34236;SDS011;20501;45.956;13.632;2024-03-08T10:06:57;16.02;;;8.98;;
34236;SDS011;20501;45.956;13.632;2024-03-08T10:09:24;13.90;;;8.23;;
34236;SDS011;20501;45.956;13.632;2024-03-08T10:11:53;12.63;;;8.05;;
34236;SDS011;20501;45.956;13.632;2024-03-08T10:14:21;14.98;;;7.60;;
34236;SDS011;20501;45.956;13.632;2024-03-08T10:16:46;16.40;;;8.73;;
34236;SDS011;20501;45.956;13.632;2024-03-08T10:19:12;13.68;;;7.88;;
34236;SDS011;20501;45.956;13.632;2024-03-08T10:21:47;13.07;;;8.07;;
34236;SDS011;20501;45.956;13.632;2024-03-08T10:24:14;16.00;;;9.57;;
34236;SDS011;20501;45.956;13.632;2024-03-08T10:26:39;18.23;;;9.57;;
34236;SDS011;20501;45.956;13.632;2024-03-08T10:29:05;14.90;;;8.77;;
34236;SDS011;20501;45.956;13.632;2024-03-08T10:31:32;12.35;;;7.80;;
34236;SDS011;20501;45.956;13.632;2024-03-08T10:33:58;15.80;;;7.18;;
34236;SDS011;20501;45.956;13.632;2024-03-08T10:36:23;13.48;;;6.78;;
34236;SDS011;20501;45.956;13.632;2024-03-08T10:38:50;11.07;;;6.80;;
34236;SDS011;20501;45.956;13.632;2024-03-08T10:41:18;13.02;;;7.70;;
34236;SDS011;20501;45.956;13.632;2024-03-08T10:49:38;12.13;;;6.95;;
34236;SDS011;20501;45.956;13.632;2024-03-08T10:52:08;13.05;;;7.30;;
34236;SDS011;20501;45.956;13.632;2024-03-08T10:54:37;10.20;;;6.68;;
34236;SDS011;20501;45.956;13.632;2024-03-08T10:57:05;13.95;;;7.80;;
34236;SDS011;20501;45.956;13.632;2024-03-08T10:59:33;11.60;;;7.00;;
34236;SDS011;20501;45.956;13.632;2024-03-08T11:01:59;12.48;;;6.70;;
34236;SDS011;20501;45.956;13.632;2024-03-08T11:04:25;9.55;;;6.03;;
34236;SDS011;20501;45.956;13.632;2024-03-08T11:06:51;11.07;;;6.63;;
34236;SDS011;20501;45.956;13.632;2024-03-08T11:09:27;12.00;;;6.80;;
34236;SDS011;20501;45.956;13.632;2024-03-08T11:14:50;14.88;;;6.90;;
34236;SDS011;20501;45.956;13.632;2024-03-08T11:19:47;11.35;;;6.25;;
34236;SDS011;20501;45.956;13.632;2024-03-08T11:22:20;12.95;;;6.70;;
34236;SDS011;20501;45.956;13.632;2024-03-08T11:24:52;10.52;;;7.10;;
34236;SDS011;20501;45.956;13.632;2024-03-08T11:27:17;15.10;;;7.30;;
34236;SDS011;20501;45.956;13.632;2024-03-08T11:29:46;9.70;;;6.75;;
34236;SDS011;20501;45.956;13.632;2024-03-08T11:32:29;14.00;;;8.30;;
34236;SDS011;20501;45.956;13.632;2024-03-08T11:34:55;16.48;;;9.13;;
34236;SDS011;20501;45.956;13.632;2024-03-08T11:37:20;13.40;;;8.10;;
34236;SDS011;20501;45.956;13.632;2024-03-08T11:42:16;12.60;;;7.70;;
34236;SDS011;20501;45.956;13.632;2024-03-08T11:44:46;11.20;;;6.25;;
34236;SDS011;20501;45.956;13.632;2024-03-08T11:47:12;13.45;;;7.57;;
34236;SDS011;20501;45.956;13.632;2024-03-08T11:49:39;12.48;;;6.97;;
34236;SDS011;20501;45.956;13.632;2024-03-08T11:52:10;11.10;;;7.13;;
34236;SDS011;20501;45.956;13.632;2024-03-08T11:54:40;11.80;;;7.18;;
34236;SDS011;20501;45.956;13.632;2024-03-08T11:57:06;11.53;;;7.87;;
34236;SDS011;20501;45.956;13.632;2024-03-08T11:59:31;13.85;;;7.38;;
34236;SDS011;20501;45.956;13.632;2024-03-08T12:02:06;13.15;;;8.02;;
34236;SDS011;20501;45.956;13.632;2024-03-08T12:04:35;14.57;;;7.80;;
34236;SDS011;20501;45.956;13.632;2024-03-08T12:07:01;11.32;;;7.07;;
34236;SDS011;20501;45.956;13.632;2024-03-08T12:09:28;11.48;;;6.55;;
34236;SDS011;20501;45.956;13.632;2024-03-08T12:11:54;9.82;;;6.30;;
34236;SDS011;20501;45.956;13.632;2024-03-08T12:14:19;11.07;;;6.60;;
34236;SDS011;20501;45.956;13.632;2024-03-08T12:16:45;18.37;;;11.03;;
34236;SDS011;20501;45.956;13.632;2024-03-08T12:19:11;12.60;;;7.03;;
34236;SDS011;20501;45.956;13.632;2024-03-08T12:21:37;10.60;;;6.90;;
34236;SDS011;20501;45.956;13.632;2024-03-08T12:24:07;13.07;;;8.38;;
34236;SDS011;20501;45.956;13.632;2024-03-08T12:26:37;11.82;;;7.45;;
34236;SDS011;20501;45.956;13.632;2024-03-08T12:29:16;12.23;;;7.57;;
34236;SDS011;20501;45.956;13.632;2024-03-08T12:31:45;10.15;;;6.38;;
34236;SDS011;20501;45.956;13.632;2024-03-08T12:34:11;13.20;;;7.95;;
34236;SDS011;20501;45.956;13.632;2024-03-08T12:36:39;10.95;;;7.13;;
34236;SDS011;20501;45.956;13.632;2024-03-08T12:39:10;10.45;;;6.57;;
34236;SDS011;20501;45.956;13.632;2024-03-08T12:41:40;10.50;;;6.25;;
34236;SDS011;20501;45.956;13.632;2024-03-08T12:44:08;13.02;;;7.13;;
34236;SDS011;20501;45.956;13.632;2024-03-08T12:46:37;14.13;;;7.65;;
34236;SDS011;20501;45.956;13.632;2024-03-08T12:49:08;9.30;;;5.45;;
34236;SDS011;20501;45.956;13.632;2024-03-08T12:51:37;6.10;;;4.22;;
34236;SDS011;20501;45.956;13.632;2024-03-08T12:54:04;9.82;;;6.35;;
34236;SDS011;20501;45.956;13.632;2024-03-08T12:56:32;9.43;;;5.05;;
34236;SDS011;20501;45.956;13.632;2024-03-08T12:58:59;9.48;;;4.80;;
34236;SDS011;20501;45.956;13.632;2024-03-08T13:01:25;8.75;;;5.18;;
34236;SDS011;20501;45.956;13.632;2024-03-08T13:03:52;9.40;;;5.45;;
34236;SDS011;20501;45.956;13.632;2024-03-08T13:06:17;8.30;;;6.07;;
34236;SDS011;20501;45.956;13.632;2024-03-08T13:08:44;8.60;;;5.82;;
34236;SDS011;20501;45.956;13.632;2024-03-08T13:11:10;9.13;;;5.90;;
34236;SDS011;20501;45.956;13.632;2024-03-08T13:13:42;8.18;;;5.22;;
34236;SDS011;20501;45.956;13.632;2024-03-08T13:18:36;7.65;;;4.85;;
34236;SDS011;20501;45.956;13.632;2024-03-08T13:21:02;8.10;;;5.38;;
34236;SDS011;20501;45.956;13.632;2024-03-08T13:23:31;6.47;;;4.53;;
34236;SDS011;20501;45.956;13.632;2024-03-08T13:25:57;8.52;;;5.20;;
34236;SDS011;20501;45.956;13.632;2024-03-08T13:28:22;6.78;;;4.50;;
34236;SDS011;20501;45.956;13.632;2024-03-08T13:30:53;8.00;;;4.25;;
34236;SDS011;20501;45.956;13.632;2024-03-08T13:33:18;10.73;;;5.28;;
34236;SDS011;20501;45.956;13.632;2024-03-08T13:35:45;7.78;;;4.07;;
34236;SDS011;20501;45.956;13.632;2024-03-08T13:38:11;6.23;;;4.50;;
34236;SDS011;20501;45.956;13.632;2024-03-08T13:40:38;10.68;;;5.25;;
34236;SDS011;20501;45.956;13.632;2024-03-08T13:43:05;7.63;;;4.75;;
34236;SDS011;20501;45.956;13.632;2024-03-08T13:45:32;5.55;;;4.13;;
34236;SDS011;20501;45.956;13.632;2024-03-08T13:47:59;7.10;;;4.68;;
34236;SDS011;20501;45.956;13.632;2024-03-08T13:50:24;6.07;;;4.93;;
34236;SDS011;20501;45.956;13.632;2024-03-08T13:52:51;6.28;;;4.53;;
34236;SDS011;20501;45.956;13.632;2024-03-08T13:55:18;7.95;;;4.43;;
34236;SDS011;20501;45.956;13.632;2024-03-08T13:57:44;9.00;;;4.38;;
34236;SDS011;20501;45.956;13.632;2024-03-08T14:00:10;6.18;;;4.53;;
34236;SDS011;20501;45.956;13.632;2024-03-08T14:02:37;7.43;;;4.55;;
34236;SDS011;20501;45.956;13.632;2024-03-08T14:05:06;8.32;;;6.03;;
34236;SDS011;20501;45.956;13.632;2024-03-08T14:07:34;9.13;;;5.50;;
34236;SDS011;20501;45.956;13.632;2024-03-08T14:10:02;11.70;;;4.82;;
34236;SDS011;20501;45.956;13.632;2024-03-08T14:12:28;8.13;;;5.57;;
34236;SDS011;20501;45.956;13.632;2024-03-08T14:14:53;9.35;;;4.68;;
34236;SDS011;20501;45.956;13.632;2024-03-08T14:17:19;7.32;;;4.40;;
34236;SDS011;20501;45.956;13.632;2024-03-08T14:19:44;6.93;;;4.10;;
34236;SDS011;20501;45.956;13.632;2024-03-08T14:22:10;7.60;;;3.92;;
34236;SDS011;20501;45.956;13.632;2024-03-08T14:24:42;6.07;;;3.85;;
34236;SDS011;20501;45.956;13.632;2024-03-08T14:27:08;8.93;;;3.70;;
34236;SDS011;20501;45.956;13.632;2024-03-08T14:29:35;6.63;;;3.60;;
34236;SDS011;20501;45.956;13.632;2024-03-08T14:32:00;4.87;;;3.43;;
34236;SDS011;20501;45.956;13.632;2024-03-08T14:34:28;5.15;;;3.40;;
34236;SDS011;20501;45.956;13.632;2024-03-08T14:36:55;7.00;;;4.10;;
34236;SDS011;20501;45.956;13.632;2024-03-08T14:39:21;8.38;;;4.10;;
34236;SDS011;20501;45.956;13.632;2024-03-08T14:41:50;9.68;;;4.00;;